sensor_id;sensor_type;location;lat;lon;timestamp;temperature;humidity
62583;DHT22;48641;51.676;5.808;2022-12-18T00:01:33;9.40;60.00
62583;DHT22;48641;51.676;5.808;2022-12-18T00:04:00;9.40;60.00
62583;DHT22;48641;51.676;5.808;2022-12-18T00:06:28;9.40;60.00
62583;DHT22;48641;51.676;5.808;2022-12-18T00:08:56;9.40;60.00
62583;DHT22;48641;51.676;5.808;2022-12-18T00:11:23;9.40;60.00
62583;DHT22;48641;51.676;5.808;2022-12-18T01:35:16;9.10;60.20
62583;DHT22;48641;51.676;5.808;2022-12-18T01:37:42;9.10;60.20
62583;DHT22;48641;51.676;5.808;2022-12-18T01:40:08;9.10;60.20
62583;DHT22;48641;51.676;5.808;2022-12-18T01:42:34;9.10;60.20
62583;DHT22;48641;51.676;5.808;2022-12-18T01:50:41;9.10;60.10
62583;DHT22;48641;51.676;5.808;2022-12-18T01:56:14;9.10;60.10
62583;DHT22;48641;51.676;5.808;2022-12-18T01:58:48;9.10;60.10
62583;DHT22;48641;51.676;5.808;2022-12-18T02:01:16;9.10;60.20
62583;DHT22;48641;51.676;5.808;2022-12-18T02:03:43;9.10;60.10
62583;DHT22;48641;51.676;5.808;2022-12-18T02:14:04;9.10;60.00
62583;DHT22;48641;51.676;5.808;2022-12-18T02:16:52;9.10;60.00
62583;DHT22;48641;51.676;5.808;2022-12-18T02:19:34;9.10;60.00
62583;DHT22;48641;51.676;5.808;2022-12-18T02:27:15;9.10;60.00
62583;DHT22;48641;51.676;5.808;2022-12-18T02:29:50;9.00;60.00
62583;DHT22;48641;51.676;5.808;2022-12-18T02:32:22;9.10;60.00
62583;DHT22;48641;51.676;5.808;2022-12-18T02:34:51;9.00;60.00
62583;DHT22;48641;51.676;5.808;2022-12-18T02:37:19;9.00;61.00
62583;DHT22;48641;51.676;5.808;2022-12-18T02:39:47;9.00;60.00
62583;DHT22;48641;51.676;5.808;2022-12-18T02:42:14;9.00;60.00
62583;DHT22;48641;51.676;5.808;2022-12-18T02:44:45;9.00;60.00
62583;DHT22;48641;51.676;5.808;2022-12-18T02:47:12;9.00;59.90
62583;DHT22;48641;51.676;5.808;2022-12-18T02:52:43;9.00;59.80
62583;DHT22;48641;51.676;5.808;2022-12-18T02:55:20;9.00;59.90
62583;DHT22;48641;51.676;5.808;2022-12-18T02:57:53;9.00;60.00
62583;DHT22;48641;51.676;5.808;2022-12-18T03:00:20;9.00;60.00
62583;DHT22;48641;51.676;5.808;2022-12-18T03:03:14;9.00;60.00
62583;DHT22;48641;51.676;5.808;2022-12-18T03:05:50;9.00;60.00
62583;DHT22;48641;51.676;5.808;2022-12-18T03:08:25;9.00;59.90
62583;DHT22;48641;51.676;5.808;2022-12-18T03:11:04;9.00;60.00
62583;DHT22;48641;51.676;5.808;2022-12-18T03:13:39;9.00;60.00
62583;DHT22;48641;51.676;5.808;2022-12-18T03:16:09;9.00;60.00
62583;DHT22;48641;51.676;5.808;2022-12-18T03:18:41;8.90;59.90
62583;DHT22;48641;51.676;5.808;2022-12-18T03:21:10;8.90;60.00
62583;DHT22;48641;51.676;5.808;2022-12-18T03:23:40;8.90;59.90
62583;DHT22;48641;51.676;5.808;2022-12-18T03:26:10;8.90;59.90
62583;DHT22;48641;51.676;5.808;2022-12-18T03:28:40;8.90;59.90
62583;DHT22;48641;51.676;5.808;2022-12-18T03:31:10;8.90;59.90
62583;DHT22;48641;51.676;5.808;2022-12-18T03:33:46;8.90;60.80
62583;DHT22;48641;51.676;5.808;2022-12-18T03:36:12;8.90;59.90
62583;DHT22;48641;51.676;5.808;2022-12-18T03:38:38;8.90;59.90
62583;DHT22;48641;51.676;5.808;2022-12-18T03:41:18;8.90;59.80
62583;DHT22;48641;51.676;5.808;2022-12-18T03:44:04;8.90;59.80
62583;DHT22;48641;51.676;5.808;2022-12-18T03:46:33;8.90;59.80
62583;DHT22;48641;51.676;5.808;2022-12-18T03:49:13;8.90;59.90
62583;DHT22;48641;51.676;5.808;2022-12-18T03:51:50;8.90;59.90
62583;DHT22;48641;51.676;5.808;2022-12-18T03:54:17;8.90;59.90
62583;DHT22;48641;51.676;5.808;2022-12-18T03:56:48;8.90;59.90
62583;DHT22;48641;51.676;5.808;2022-12-18T03:59:15;8.90;59.80
62583;DHT22;48641;51.676;5.808;2022-12-18T04:01:45;8.90;59.80
62583;DHT22;48641;51.676;5.808;2022-12-18T04:04:12;8.90;59.80
62583;DHT22;48641;51.676;5.808;2022-12-18T04:06:40;8.90;59.90
62583;DHT22;48641;51.676;5.808;2022-12-18T04:09:07;8.90;59.80
62583;DHT22;48641;51.676;5.808;2022-12-18T04:11:33;8.80;59.70
62583;DHT22;48641;51.676;5.808;2022-12-18T04:13:58;8.80;59.80
62583;DHT22;48641;51.676;5.808;2022-12-18T04:16:25;8.80;59.70
62583;DHT22;48641;51.676;5.808;2022-12-18T04:18:52;8.80;59.70
62583;DHT22;48641;51.676;5.808;2022-12-18T04:21:17;8.80;59.70
62583;DHT22;48641;51.676;5.808;2022-12-18T04:23:43;8.80;60.00
62583;DHT22;48641;51.676;5.808;2022-12-18T04:26:09;8.80;59.70
62583;DHT22;48641;51.676;5.808;2022-12-18T04:28:34;8.80;59.80
62583;DHT22;48641;51.676;5.808;2022-12-18T04:31:00;8.90;59.80
62583;DHT22;48641;51.676;5.808;2022-12-18T04:33:25;8.80;59.60
62583;DHT22;48641;51.676;5.808;2022-12-18T04:35:51;8.80;59.60
62583;DHT22;48641;51.676;5.808;2022-12-18T04:38:16;8.80;59.70
62583;DHT22;48641;51.676;5.808;2022-12-18T04:40:42;8.80;59.60
62583;DHT22;48641;51.676;5.808;2022-12-18T04:43:08;8.80;59.70
62583;DHT22;48641;51.676;5.808;2022-12-18T04:45:34;8.80;59.60
62583;DHT22;48641;51.676;5.808;2022-12-18T04:48:00;8.80;59.60
62583;DHT22;48641;51.676;5.808;2022-12-18T04:50:27;8.80;59.70
62583;DHT22;48641;51.676;5.808;2022-12-18T04:52:53;8.80;59.70
62583;DHT22;48641;51.676;5.808;2022-12-18T04:55:18;8.70;60.60
62583;DHT22;48641;51.676;5.808;2022-12-18T04:57:44;8.80;59.60
62583;DHT22;48641;51.676;5.808;2022-12-18T05:00:10;8.80;59.70
62583;DHT22;48641;51.676;5.808;2022-12-18T05:02:36;8.80;59.60
62583;DHT22;48641;51.676;5.808;2022-12-18T05:05:02;8.80;59.60
62583;DHT22;48641;51.676;5.808;2022-12-18T05:07:27;8.80;59.60
62583;DHT22;48641;51.676;5.808;2022-12-18T05:09:53;8.80;59.60
62583;DHT22;48641;51.676;5.808;2022-12-18T05:12:18;8.80;59.60
62583;DHT22;48641;51.676;5.808;2022-12-18T05:14:44;8.80;59.60
62583;DHT22;48641;51.676;5.808;2022-12-18T05:17:10;8.80;59.60
62583;DHT22;48641;51.676;5.808;2022-12-18T05:19:35;8.70;59.60
62583;DHT22;48641;51.676;5.808;2022-12-18T05:22:01;8.70;59.60
62583;DHT22;48641;51.676;5.808;2022-12-18T05:24:26;8.70;59.60
62583;DHT22;48641;51.676;5.808;2022-12-18T05:26:52;8.70;59.60
62583;DHT22;48641;51.676;5.808;2022-12-18T05:29:18;8.70;59.60
62583;DHT22;48641;51.676;5.808;2022-12-18T05:31:43;8.70;59.60
62583;DHT22;48641;51.676;5.808;2022-12-18T05:34:09;8.70;59.60
62583;DHT22;48641;51.676;5.808;2022-12-18T05:36:35;8.70;59.60
62583;DHT22;48641;51.676;5.808;2022-12-18T05:39:00;8.70;59.60
62583;DHT22;48641;51.676;5.808;2022-12-18T05:41:27;8.70;59.60
62583;DHT22;48641;51.676;5.808;2022-12-18T05:43:52;8.70;59.60
62583;DHT22;48641;51.676;5.808;2022-12-18T05:46:18;8.70;59.60
62583;DHT22;48641;51.676;5.808;2022-12-18T05:48:44;8.60;59.50
62583;DHT22;48641;51.676;5.808;2022-12-18T05:51:14;8.60;59.50
62583;DHT22;48641;51.676;5.808;2022-12-18T05:53:40;8.70;59.60
62583;DHT22;48641;51.676;5.808;2022-12-18T05:56:08;8.70;59.60
62583;DHT22;48641;51.676;5.808;2022-12-18T05:58:35;8.60;59.60
62583;DHT22;48641;51.676;5.808;2022-12-18T06:01:15;8.60;59.50
62583;DHT22;48641;51.676;5.808;2022-12-18T06:03:41;8.70;59.60
62583;DHT22;48641;51.676;5.808;2022-12-18T06:06:17;8.60;59.50
62583;DHT22;48641;51.676;5.808;2022-12-18T06:08:44;8.60;59.60
62583;DHT22;48641;51.676;5.808;2022-12-18T06:11:10;8.60;59.50
62583;DHT22;48641;51.676;5.808;2022-12-18T06:13:36;8.60;59.60
62583;DHT22;48641;51.676;5.808;2022-12-18T06:16:06;8.60;59.60
62583;DHT22;48641;51.676;5.808;2022-12-18T06:18:32;8.60;59.60
62583;DHT22;48641;51.676;5.808;2022-12-18T06:20:59;8.60;59.60
62583;DHT22;48641;51.676;5.808;2022-12-18T06:23:25;8.60;59.60
62583;DHT22;48641;51.676;5.808;2022-12-18T06:25:51;8.60;59.60
62583;DHT22;48641;51.676;5.808;2022-12-18T06:28:17;8.60;59.60
62583;DHT22;48641;51.676;5.808;2022-12-18T06:30:47;8.60;59.60
62583;DHT22;48641;51.676;5.808;2022-12-18T06:33:13;8.60;59.60
62583;DHT22;48641;51.676;5.808;2022-12-18T06:35:40;8.50;59.60
62583;DHT22;48641;51.676;5.808;2022-12-18T06:38:05;8.60;59.70
62583;DHT22;48641;51.676;5.808;2022-12-18T06:40:31;8.50;59.60
62583;DHT22;48641;51.676;5.808;2022-12-18T06:42:57;8.50;59.50
62583;DHT22;48641;51.676;5.808;2022-12-18T06:45:23;8.50;59.60
62583;DHT22;48641;51.676;5.808;2022-12-18T06:47:49;8.50;59.60
62583;DHT22;48641;51.676;5.808;2022-12-18T06:50:15;8.50;59.60
62583;DHT22;48641;51.676;5.808;2022-12-18T06:52:41;8.50;59.50
62583;DHT22;48641;51.676;5.808;2022-12-18T06:55:08;8.50;59.60
62583;DHT22;48641;51.676;5.808;2022-12-18T06:57:34;8.50;59.60
62583;DHT22;48641;51.676;5.808;2022-12-18T06:59:59;8.50;59.60
62583;DHT22;48641;51.676;5.808;2022-12-18T07:02:25;8.50;59.60
62583;DHT22;48641;51.676;5.808;2022-12-18T07:04:51;8.50;59.60
62583;DHT22;48641;51.676;5.808;2022-12-18T07:07:17;8.50;60.60
62583;DHT22;48641;51.676;5.808;2022-12-18T07:09:43;8.50;59.60
62583;DHT22;48641;51.676;5.808;2022-12-18T07:12:08;8.50;60.60
62583;DHT22;48641;51.676;5.808;2022-12-18T07:14:34;8.40;59.60
62583;DHT22;48641;51.676;5.808;2022-12-18T07:16:59;8.40;59.60
62583;DHT22;48641;51.676;5.808;2022-12-18T07:19:25;8.40;59.60
62583;DHT22;48641;51.676;5.808;2022-12-18T07:21:51;8.40;59.60
62583;DHT22;48641;51.676;5.808;2022-12-18T07:24:17;8.40;59.60
62583;DHT22;48641;51.676;5.808;2022-12-18T07:26:45;8.40;59.60
62583;DHT22;48641;51.676;5.808;2022-12-18T07:29:11;8.40;59.50
62583;DHT22;48641;51.676;5.808;2022-12-18T07:31:37;8.40;59.50
62583;DHT22;48641;51.676;5.808;2022-12-18T07:34:02;8.40;59.50
62583;DHT22;48641;51.676;5.808;2022-12-18T07:36:28;8.40;59.50
62583;DHT22;48641;51.676;5.808;2022-12-18T07:38:53;8.40;59.60
62583;DHT22;48641;51.676;5.808;2022-12-18T07:41:19;8.40;59.60
62583;DHT22;48641;51.676;5.808;2022-12-18T07:43:46;8.40;59.70
62583;DHT22;48641;51.676;5.808;2022-12-18T07:46:13;8.40;59.70
62583;DHT22;48641;51.676;5.808;2022-12-18T07:48:40;8.40;59.70
62583;DHT22;48641;51.676;5.808;2022-12-18T07:51:06;8.40;59.70
62583;DHT22;48641;51.676;5.808;2022-12-18T07:53:33;8.40;59.70
62583;DHT22;48641;51.676;5.808;2022-12-18T07:56:02;8.40;59.80
62583;DHT22;48641;51.676;5.808;2022-12-18T07:58:28;8.40;60.00
62583;DHT22;48641;51.676;5.808;2022-12-18T08:00:54;8.40;60.10
62583;DHT22;48641;51.676;5.808;2022-12-18T08:03:27;8.50;60.10
62583;DHT22;48641;51.676;5.808;2022-12-18T08:05:52;8.50;60.10
62583;DHT22;48641;51.676;5.808;2022-12-18T08:08:18;8.50;60.00
62583;DHT22;48641;51.676;5.808;2022-12-18T08:10:43;8.50;60.00
62583;DHT22;48641;51.676;5.808;2022-12-18T08:13:09;8.50;60.00
62583;DHT22;48641;51.676;5.808;2022-12-18T08:15:35;8.50;60.00
62583;DHT22;48641;51.676;5.808;2022-12-18T08:18:00;8.50;60.00
62583;DHT22;48641;51.676;5.808;2022-12-18T08:20:26;8.50;60.00
62583;DHT22;48641;51.676;5.808;2022-12-18T08:22:51;8.50;59.90
62583;DHT22;48641;51.676;5.808;2022-12-18T08:25:17;8.50;59.90
62583;DHT22;48641;51.676;5.808;2022-12-18T08:27:42;8.50;59.90
62583;DHT22;48641;51.676;5.808;2022-12-18T08:30:09;8.50;59.90
62583;DHT22;48641;51.676;5.808;2022-12-18T08:32:34;8.50;60.00
62583;DHT22;48641;51.676;5.808;2022-12-18T08:35:00;8.50;59.80
62583;DHT22;48641;51.676;5.808;2022-12-18T08:37:26;8.50;59.80
62583;DHT22;48641;51.676;5.808;2022-12-18T08:39:51;8.50;59.80
62583;DHT22;48641;51.676;5.808;2022-12-18T08:42:17;8.50;59.80
62583;DHT22;48641;51.676;5.808;2022-12-18T08:45:02;8.50;59.80
62583;DHT22;48641;51.676;5.808;2022-12-18T08:47:28;8.50;59.80
62583;DHT22;48641;51.676;5.808;2022-12-18T08:49:54;8.50;59.80
62583;DHT22;48641;51.676;5.808;2022-12-18T08:52:19;8.50;59.80
62583;DHT22;48641;51.676;5.808;2022-12-18T08:54:45;8.50;59.80
62583;DHT22;48641;51.676;5.808;2022-12-18T08:57:11;8.50;59.80
62583;DHT22;48641;51.676;5.808;2022-12-18T08:59:36;8.50;59.80
62583;DHT22;48641;51.676;5.808;2022-12-18T09:02:02;8.50;59.90
62583;DHT22;48641;51.676;5.808;2022-12-18T09:04:27;8.50;59.90
62583;DHT22;48641;51.676;5.808;2022-12-18T09:06:53;8.50;59.90
62583;DHT22;48641;51.676;5.808;2022-12-18T09:09:18;8.50;59.90
62583;DHT22;48641;51.676;5.808;2022-12-18T09:11:44;8.50;59.90
62583;DHT22;48641;51.676;5.808;2022-12-18T09:14:10;8.50;59.90
62583;DHT22;48641;51.676;5.808;2022-12-18T09:16:36;8.50;59.90
62583;DHT22;48641;51.676;5.808;2022-12-18T09:19:03;8.50;59.80
62583;DHT22;48641;51.676;5.808;2022-12-18T09:21:32;8.50;59.80
62583;DHT22;48641;51.676;5.808;2022-12-18T09:23:58;8.50;59.80
62583;DHT22;48641;51.676;5.808;2022-12-18T09:26:25;8.50;59.80
62583;DHT22;48641;51.676;5.808;2022-12-18T09:28:52;8.50;59.80
62583;DHT22;48641;51.676;5.808;2022-12-18T09:31:19;8.50;59.80
62583;DHT22;48641;51.676;5.808;2022-12-18T09:33:45;8.50;59.80
62583;DHT22;48641;51.676;5.808;2022-12-18T09:36:14;8.50;59.70
62583;DHT22;48641;51.676;5.808;2022-12-18T09:38:40;8.50;59.70
62583;DHT22;48641;51.676;5.808;2022-12-18T09:44:13;8.50;59.70
62583;DHT22;48641;51.676;5.808;2022-12-18T09:46:45;8.50;60.70
62583;DHT22;48641;51.676;5.808;2022-12-18T09:49:16;8.50;59.80
62583;DHT22;48641;51.676;5.808;2022-12-18T09:51:44;8.50;59.80
62583;DHT22;48641;51.676;5.808;2022-12-18T09:54:16;8.50;59.80
62583;DHT22;48641;51.676;5.808;2022-12-18T09:56:44;8.50;59.80
62583;DHT22;48641;51.676;5.808;2022-12-18T09:59:35;8.50;59.80
62583;DHT22;48641;51.676;5.808;2022-12-18T10:02:16;8.50;59.80
62583;DHT22;48641;51.676;5.808;2022-12-18T10:04:43;8.50;59.70
62583;DHT22;48641;51.676;5.808;2022-12-18T10:07:58;8.50;59.80
62583;DHT22;48641;51.676;5.808;2022-12-18T10:13:00;8.50;59.70
62583;DHT22;48641;51.676;5.808;2022-12-18T10:15:34;8.50;59.80
62583;DHT22;48641;51.676;5.808;2022-12-18T10:18:26;8.50;59.80
62583;DHT22;48641;51.676;5.808;2022-12-18T10:20:58;8.50;59.80
62583;DHT22;48641;51.676;5.808;2022-12-18T10:26:18;8.50;59.80
62583;DHT22;48641;51.676;5.808;2022-12-18T10:28:45;8.50;59.80
62583;DHT22;48641;51.676;5.808;2022-12-18T10:31:17;8.50;59.80
62583;DHT22;48641;51.676;5.808;2022-12-18T10:33:43;8.50;59.80
62583;DHT22;48641;51.676;5.808;2022-12-18T10:36:09;8.50;59.80
62583;DHT22;48641;51.676;5.808;2022-12-18T10:38:35;8.50;59.80
62583;DHT22;48641;51.676;5.808;2022-12-18T10:43:47;8.50;59.60
62583;DHT22;48641;51.676;5.808;2022-12-18T10:46:19;8.50;59.70
62583;DHT22;48641;51.676;5.808;2022-12-18T10:48:53;8.50;59.60
62583;DHT22;48641;51.676;5.808;2022-12-18T10:51:31;8.50;59.60
62583;DHT22;48641;51.676;5.808;2022-12-18T10:54:04;8.50;59.60
62583;DHT22;48641;51.676;5.808;2022-12-18T10:56:34;8.50;59.60
62583;DHT22;48641;51.676;5.808;2022-12-18T10:59:06;8.50;59.60
62583;DHT22;48641;51.676;5.808;2022-12-18T11:01:51;8.50;59.60
62583;DHT22;48641;51.676;5.808;2022-12-18T11:04:20;8.50;59.60
62583;DHT22;48641;51.676;5.808;2022-12-18T11:09:21;8.50;59.60
62583;DHT22;48641;51.676;5.808;2022-12-18T11:11:55;8.50;59.60
62583;DHT22;48641;51.676;5.808;2022-12-18T11:14:31;8.50;59.60
62583;DHT22;48641;51.676;5.808;2022-12-18T11:16:59;8.60;59.70
62583;DHT22;48641;51.676;5.808;2022-12-18T11:19:35;8.50;59.60
62583;DHT22;48641;51.676;5.808;2022-12-18T11:22:19;8.50;59.60
62583;DHT22;48641;51.676;5.808;2022-12-18T11:25:34;8.60;59.70
62583;DHT22;48641;51.676;5.808;2022-12-18T11:27:46;8.50;59.60
62583;DHT22;48641;51.676;5.808;2022-12-18T11:30:24;8.50;59.60
62583;DHT22;48641;51.676;5.808;2022-12-18T11:35:39;8.50;60.10
62583;DHT22;48641;51.676;5.808;2022-12-18T11:38:19;8.50;60.00
62583;DHT22;48641;51.676;5.808;2022-12-18T11:43:53;8.50;60.00
62583;DHT22;48641;51.676;5.808;2022-12-18T11:46:33;8.50;60.00
62583;DHT22;48641;51.676;5.808;2022-12-18T11:49:24;8.50;60.00
62583;DHT22;48641;51.676;5.808;2022-12-18T11:54:34;8.60;60.00
62583;DHT22;48641;51.676;5.808;2022-12-18T11:57:33;8.50;60.00
62583;DHT22;48641;51.676;5.808;2022-12-18T12:00:03;8.60;60.00
62583;DHT22;48641;51.676;5.808;2022-12-18T12:02:36;8.60;60.00
62583;DHT22;48641;51.676;5.808;2022-12-18T12:05:24;8.60;60.00
62583;DHT22;48641;51.676;5.808;2022-12-18T12:14:04;8.60;59.90
62583;DHT22;48641;51.676;5.808;2022-12-18T12:22:39;8.50;60.10
62583;DHT22;48641;51.676;5.808;2022-12-18T12:28:05;8.60;60.10
62583;DHT22;48641;51.676;5.808;2022-12-18T12:31:02;8.60;60.10
62583;DHT22;48641;51.676;5.808;2022-12-18T12:34:04;8.60;60.10
62583;DHT22;48641;51.676;5.808;2022-12-18T12:39:08;8.60;60.10
62583;DHT22;48641;51.676;5.808;2022-12-18T12:41:35;8.60;60.10
62583;DHT22;48641;51.676;5.808;2022-12-18T12:44:25;8.60;60.00
62583;DHT22;48641;51.676;5.808;2022-12-18T12:46:54;8.60;60.00
62583;DHT22;48641;51.676;5.808;2022-12-18T12:49:26;8.60;60.00
62583;DHT22;48641;51.676;5.808;2022-12-18T12:52:07;8.60;60.00
62583;DHT22;48641;51.676;5.808;2022-12-18T12:54:36;8.60;60.00
62583;DHT22;48641;51.676;5.808;2022-12-18T12:57:54;8.60;59.90
62583;DHT22;48641;51.676;5.808;2022-12-18T13:00:15;8.60;59.90
62583;DHT22;48641;51.676;5.808;2022-12-18T13:08:09;8.60;59.90
62583;DHT22;48641;51.676;5.808;2022-12-18T13:10:39;8.60;59.90
62583;DHT22;48641;51.676;5.808;2022-12-18T13:13:10;8.60;59.90
62583;DHT22;48641;51.676;5.808;2022-12-18T13:18:15;8.70;59.90
62583;DHT22;48641;51.676;5.808;2022-12-18T13:20:50;8.60;59.80
62583;DHT22;48641;51.676;5.808;2022-12-18T13:23:32;8.70;59.80
62583;DHT22;48641;51.676;5.808;2022-12-18T13:34:17;8.70;59.80
62583;DHT22;48641;51.676;5.808;2022-12-18T13:36:43;8.70;59.80
62583;DHT22;48641;51.676;5.808;2022-12-18T13:39:30;8.70;59.80
62583;DHT22;48641;51.676;5.808;2022-12-18T13:44:33;8.70;59.80
62583;DHT22;48641;51.676;5.808;2022-12-18T13:47:01;8.70;59.80
62583;DHT22;48641;51.676;5.808;2022-12-18T13:49:40;8.70;59.80
62583;DHT22;48641;51.676;5.808;2022-12-18T13:52:21;8.70;59.80
62583;DHT22;48641;51.676;5.808;2022-12-18T13:54:55;8.70;59.80
62583;DHT22;48641;51.676;5.808;2022-12-18T13:57:33;8.70;59.80
62583;DHT22;48641;51.676;5.808;2022-12-18T14:00:23;8.70;59.80
62583;DHT22;48641;51.676;5.808;2022-12-18T14:02:50;8.70;59.80
62583;DHT22;48641;51.676;5.808;2022-12-18T14:07:52;8.70;59.80
62583;DHT22;48641;51.676;5.808;2022-12-18T14:10:19;8.70;59.70
62583;DHT22;48641;51.676;5.808;2022-12-18T14:12:47;8.70;59.60
62583;DHT22;48641;51.676;5.808;2022-12-18T14:20:48;8.70;59.60
62583;DHT22;48641;51.676;5.808;2022-12-18T14:23:33;8.70;59.70
62583;DHT22;48641;51.676;5.808;2022-12-18T14:25:59;8.70;59.60
62583;DHT22;48641;51.676;5.808;2022-12-18T14:28:25;8.70;59.60
62583;DHT22;48641;51.676;5.808;2022-12-18T14:30:52;8.70;59.60
62583;DHT22;48641;51.676;5.808;2022-12-18T14:33:25;8.70;59.60
62583;DHT22;48641;51.676;5.808;2022-12-18T14:41:05;8.70;59.60
62583;DHT22;48641;51.676;5.808;2022-12-18T14:43:36;8.70;59.60
62583;DHT22;48641;51.676;5.808;2022-12-18T14:46:04;8.70;59.50
62583;DHT22;48641;51.676;5.808;2022-12-18T14:48:40;8.70;59.50
62583;DHT22;48641;51.676;5.808;2022-12-18T14:51:18;8.80;59.50
62583;DHT22;48641;51.676;5.808;2022-12-18T14:53:53;8.80;59.50
62583;DHT22;48641;51.676;5.808;2022-12-18T14:56:25;8.70;59.50
62583;DHT22;48641;51.676;5.808;2022-12-18T14:58:57;8.70;59.50
62583;DHT22;48641;51.676;5.808;2022-12-18T15:03:55;8.70;60.40
62583;DHT22;48641;51.676;5.808;2022-12-18T15:06:30;8.80;59.60
62583;DHT22;48641;51.676;5.808;2022-12-18T15:08:58;8.80;59.60
62583;DHT22;48641;51.676;5.808;2022-12-18T15:14:33;8.80;59.40
62583;DHT22;48641;51.676;5.808;2022-12-18T15:17:01;8.80;59.40
62583;DHT22;48641;51.676;5.808;2022-12-18T15:19:37;8.70;59.40
62583;DHT22;48641;51.676;5.808;2022-12-18T15:22:04;8.70;59.40
62583;DHT22;48641;51.676;5.808;2022-12-18T15:24:31;8.80;59.50
62583;DHT22;48641;51.676;5.808;2022-12-18T15:26:58;8.70;59.40
62583;DHT22;48641;51.676;5.808;2022-12-18T15:29:24;8.70;59.40
62583;DHT22;48641;51.676;5.808;2022-12-18T15:31:59;8.80;59.40
62583;DHT22;48641;51.676;5.808;2022-12-18T15:34:25;8.80;59.40
62583;DHT22;48641;51.676;5.808;2022-12-18T15:36:51;8.80;59.40
62583;DHT22;48641;51.676;5.808;2022-12-18T15:39:17;8.80;59.40
62583;DHT22;48641;51.676;5.808;2022-12-18T15:41:43;8.80;59.30
62583;DHT22;48641;51.676;5.808;2022-12-18T15:44:29;8.80;59.40
62583;DHT22;48641;51.676;5.808;2022-12-18T15:46:55;8.70;59.50
62583;DHT22;48641;51.676;5.808;2022-12-18T15:49:21;8.80;59.50
62583;DHT22;48641;51.676;5.808;2022-12-18T15:51:52;8.80;59.50
62583;DHT22;48641;51.676;5.808;2022-12-18T15:54:19;8.80;59.50
62583;DHT22;48641;51.676;5.808;2022-12-18T15:57:09;8.70;59.40
62583;DHT22;48641;51.676;5.808;2022-12-18T15:59:54;8.80;59.40
62583;DHT22;48641;51.676;5.808;2022-12-18T16:02:22;8.80;59.40
62583;DHT22;48641;51.676;5.808;2022-12-18T16:04:48;8.70;59.40
62583;DHT22;48641;51.676;5.808;2022-12-18T16:07:14;8.80;59.40
62583;DHT22;48641;51.676;5.808;2022-12-18T16:09:39;8.70;59.40
62583;DHT22;48641;51.676;5.808;2022-12-18T16:12:06;8.80;59.40
62583;DHT22;48641;51.676;5.808;2022-12-18T16:14:36;8.80;59.40
62583;DHT22;48641;51.676;5.808;2022-12-18T16:17:05;8.80;59.40
62583;DHT22;48641;51.676;5.808;2022-12-18T16:19:34;8.80;59.30
62583;DHT22;48641;51.676;5.808;2022-12-18T16:21:59;8.80;59.30
62583;DHT22;48641;51.676;5.808;2022-12-18T16:24:29;8.80;59.30
62583;DHT22;48641;51.676;5.808;2022-12-18T16:26:57;8.80;59.30
62583;DHT22;48641;51.676;5.808;2022-12-18T16:29:25;8.70;59.40
62583;DHT22;48641;51.676;5.808;2022-12-18T16:32:01;8.70;59.40
62583;DHT22;48641;51.676;5.808;2022-12-18T16:34:30;8.70;59.40
62583;DHT22;48641;51.676;5.808;2022-12-18T16:36:57;8.70;59.40
62583;DHT22;48641;51.676;5.808;2022-12-18T16:39:24;8.70;59.40
62583;DHT22;48641;51.676;5.808;2022-12-18T16:41:49;8.70;59.30
62583;DHT22;48641;51.676;5.808;2022-12-18T16:44:15;8.70;59.30
62583;DHT22;48641;51.676;5.808;2022-12-18T16:46:41;8.70;59.20
62583;DHT22;48641;51.676;5.808;2022-12-18T16:49:17;8.80;60.20
62583;DHT22;48641;51.676;5.808;2022-12-18T16:51:45;8.80;59.20
62583;DHT22;48641;51.676;5.808;2022-12-18T16:54:11;8.70;59.20
62583;DHT22;48641;51.676;5.808;2022-12-18T19:21:00;8.60;59.50
62583;DHT22;48641;51.676;5.808;2022-12-18T19:23:27;8.70;59.60
62583;DHT22;48641;51.676;5.808;2022-12-18T19:25:53;8.70;59.60
62583;DHT22;48641;51.676;5.808;2022-12-18T19:28:20;8.60;59.50
62583;DHT22;48641;51.676;5.808;2022-12-18T19:30:46;8.70;59.50
62583;DHT22;48641;51.676;5.808;2022-12-18T19:33:12;8.70;59.40
62583;DHT22;48641;51.676;5.808;2022-12-18T19:35:37;8.70;59.40
62583;DHT22;48641;51.676;5.808;2022-12-18T19:38:03;8.70;59.40
62583;DHT22;48641;51.676;5.808;2022-12-18T19:40:28;8.70;59.30
62583;DHT22;48641;51.676;5.808;2022-12-18T19:42:54;8.80;59.30
62583;DHT22;48641;51.676;5.808;2022-12-18T19:45:20;8.80;59.20
62583;DHT22;48641;51.676;5.808;2022-12-18T19:47:45;8.70;59.20
62583;DHT22;48641;51.676;5.808;2022-12-18T19:50:11;8.80;59.20
62583;DHT22;48641;51.676;5.808;2022-12-18T19:52:36;8.80;59.20
62583;DHT22;48641;51.676;5.808;2022-12-18T19:55:03;8.80;59.10
62583;DHT22;48641;51.676;5.808;2022-12-18T19:57:28;8.80;59.20
62583;DHT22;48641;51.676;5.808;2022-12-18T19:59:55;8.80;59.10
62583;DHT22;48641;51.676;5.808;2022-12-18T20:02:21;8.80;59.10
62583;DHT22;48641;51.676;5.808;2022-12-18T20:04:46;8.80;59.00
62583;DHT22;48641;51.676;5.808;2022-12-18T20:07:13;8.80;59.00
62583;DHT22;48641;51.676;5.808;2022-12-18T20:09:38;8.80;59.00
62583;DHT22;48641;51.676;5.808;2022-12-18T20:12:04;8.80;59.00
62583;DHT22;48641;51.676;5.808;2022-12-18T20:14:30;8.80;59.00
62583;DHT22;48641;51.676;5.808;2022-12-18T20:16:55;8.80;59.00
62583;DHT22;48641;51.676;5.808;2022-12-18T20:19:22;8.80;59.00
62583;DHT22;48641;51.676;5.808;2022-12-18T20:21:47;8.80;59.00
62583;DHT22;48641;51.676;5.808;2022-12-18T20:24:13;8.80;59.00
62583;DHT22;48641;51.676;5.808;2022-12-18T20:26:39;8.80;59.00
62583;DHT22;48641;51.676;5.808;2022-12-18T20:29:05;8.80;59.00
62583;DHT22;48641;51.676;5.808;2022-12-18T20:31:31;8.80;58.90
62583;DHT22;48641;51.676;5.808;2022-12-18T20:33:56;8.80;58.90
62583;DHT22;48641;51.676;5.808;2022-12-18T20:36:22;8.80;58.90
62583;DHT22;48641;51.676;5.808;2022-12-18T20:38:48;8.80;58.90
62583;DHT22;48641;51.676;5.808;2022-12-18T20:41:17;8.80;58.90
62583;DHT22;48641;51.676;5.808;2022-12-18T20:43:43;8.80;58.90
62583;DHT22;48641;51.676;5.808;2022-12-18T20:46:11;8.80;58.90
62583;DHT22;48641;51.676;5.808;2022-12-18T20:48:37;8.80;58.90
62583;DHT22;48641;51.676;5.808;2022-12-18T20:51:05;8.80;58.90
62583;DHT22;48641;51.676;5.808;2022-12-18T20:53:33;8.80;58.90
62583;DHT22;48641;51.676;5.808;2022-12-18T20:55:58;8.80;58.90
62583;DHT22;48641;51.676;5.808;2022-12-18T20:58:24;8.80;58.90
62583;DHT22;48641;51.676;5.808;2022-12-18T21:01:19;8.80;58.90
62583;DHT22;48641;51.676;5.808;2022-12-18T21:03:46;8.80;58.90
62583;DHT22;48641;51.676;5.808;2022-12-18T21:06:12;8.80;58.90
62583;DHT22;48641;51.676;5.808;2022-12-18T21:08:40;8.80;58.90
62583;DHT22;48641;51.676;5.808;2022-12-18T21:14:19;8.80;59.00
62583;DHT22;48641;51.676;5.808;2022-12-18T21:16:46;8.80;59.00
62583;DHT22;48641;51.676;5.808;2022-12-18T21:19:13;8.80;59.00
62583;DHT22;48641;51.676;5.808;2022-12-18T21:21:39;8.80;59.00
62583;DHT22;48641;51.676;5.808;2022-12-18T21:24:06;8.80;59.00
62583;DHT22;48641;51.676;5.808;2022-12-18T21:26:33;8.80;59.00
62583;DHT22;48641;51.676;5.808;2022-12-18T21:29:00;8.70;58.90
62583;DHT22;48641;51.676;5.808;2022-12-18T21:31:28;8.80;59.00